This demonstration page uses our WeatherBlox Daily Observations layout. Learn more.

39.29038, -76.61219

Hourly Observations for October 13, 2019

Temp ( °F °C ) Dew Point ( °F °C ) Humidity (%) Winds ( mph kmh ) Pressure ( in mb ) Visibility ( mi km ) Precip ( " mm )
12:54 am 00:54 undefined 61 16.1 42 5.6 50 50 undefined N/A 30.06 1018 N/A 0 0
1:54 am 01:54 undefined 59 15 42 5.6 54 54 undefined N/A 30.06 1018 N/A 0 0
2:54 am 02:54 undefined 57 13.9 40 4.4 53 53 undefined N/A 30.06 1018 N/A 0 0
3:54 am 03:54 undefined 56 13.3 40 4.4 55 55 undefined N/A 30.06 1018 N/A 0 0
4:54 am 04:54 undefined 56 13.3 39 3.9 53 53 undefined N/A 30.09 1019 N/A 0 0
5:54 am 05:54 undefined 55 12.8 38 3.3 53 53 undefined N/A 30.09 1019 N/A 0 0
6:54 am 06:54 undefined 55 12.8 38 3.3 53 53 undefined N/A 30.12 1020 N/A 0 0
7:54 am 07:54 undefined 55 12.8 37 2.8 51 51 undefined N/A 30.12 1020 N/A 0 0
8:54 am 08:54 undefined 55 12.8 37 2.8 51 51 undefined N/A 30.12 1020 N/A 0 0
9:54 am 09:54 undefined 57 13.9 37 2.8 47 47 undefined N/A 30.12 1020 N/A 0 0
10:54 am 10:54 undefined 60 15.6 38 3.3 44 44 undefined N/A 30.12 1020 N/A 0 0
11:54 am 11:54 undefined 63 17.2 41 5 45 45 undefined N/A 30.09 1019 N/A 0 0
12:54 pm 12:54 undefined 64 17.8 43 6.1 46 46 undefined N/A 30.09 1019 N/A 0 0
1:54 pm 13:54 undefined 63 17.2 44 6.7 50 50 undefined N/A 30.06 1018 N/A 0 0
2:54 pm 14:54 undefined 64 17.8 41 5 43 43 undefined N/A 30.03 1017 N/A 0 0
3:54 pm 15:54 undefined 63 17.2 44 6.7 50 50 undefined N/A 30.03 1017 N/A 0 0
4:54 pm 16:54 undefined 63 17.2 44 6.7 50 50 undefined N/A 30.03 1017 N/A 0 0
5:54 pm 17:54 undefined 62 16.7 47 8.3 58 58 undefined N/A 30 1016 N/A 0 0
6:54 pm 18:54 undefined 61 16.1 50 10 67 67 undefined N/A 30.03 1017 N/A 0 0
7:54 pm 19:54 undefined 61 16.1 50 10 67 67 undefined N/A 30 1016 N/A 0 0
8:54 pm 20:54 undefined 61 16.1 53 11.7 75 75 undefined N/A 30 1016 N/A 0 0
9:54 pm 21:54 undefined 61 16.1 54 12.2 78 78 undefined N/A 30 1016 N/A 0 0
10:54 pm 22:54 undefined 61 16.1 54 12.2 78 78 undefined N/A 30 1016 N/A 0 0
11:54 pm 23:54 undefined 61 16.1 55 12.8 81 81 undefined N/A 30 1016 N/A 0 0

Powered by AerisWeather